Time;durP1;ratioP1;P1;durP2;ratioP2;P2;SDS_P1;SDS_P2;PMS_P1;PMS_P2;Temp;Humidity;BMP_temperature;BMP_pressure;BME280_temperature;BME280_humidity;BME280_pressure;Samples;Min_cycle;Max_cycle;Signal;HPM_P1;HPM_P2
2022/04/01 00:02:21;;;;;;;2.10;2.00;;;2.20;99.90;;;;;;5034851;28;20464;-66
2022/04/01 00:04:47;;;;;;;3.83;1.90;;;2.20;99.90;;;;;;5035265;28;20206;-63
2022/04/01 00:07:13;;;;;;;2.27;2.10;;;2.30;99.90;;;;;;5036359;28;20183;-66
2022/04/01 00:09:38;;;;;;;2.10;1.73;;;2.30;99.90;;;;;;5035511;28;20167;-63
2022/04/01 00:12:05;;;;;;;2.93;1.97;;;2.30;99.90;;;;;;5036025;28;20191;-64
2022/04/01 00:14:32;;;;;;;3.03;2.50;;;2.30;99.90;;;;;;5036134;28;20172;-63
2022/04/01 00:16:58;;;;;;;1.97;1.87;;;2.30;99.90;;;;;;5035065;28;20460;-63
2022/04/01 00:19:24;;;;;;;9.40;2.88;;;2.30;99.90;;;;;;5035389;28;20434;-66
2022/04/01 00:21:50;;;;;;;1.95;1.85;;;2.30;99.90;;;;;;5035840;28;20198;-64
2022/04/01 00:24:16;;;;;;;1.88;1.77;;;2.30;99.90;;;;;;5035899;28;20195;-64
2022/04/01 00:26:43;;;;;;;4.40;2.20;;;2.30;99.90;;;;;;5035916;28;20261;-66
2022/04/01 00:29:15;;;;;;;2.15;2.05;;;2.30;99.90;;;;;;5035205;28;20156;-67
2022/04/01 00:31:58;;;;;;;2.17;2.03;;;2.30;99.90;;;;;;5035745;28;20192;-67
2022/04/01 00:34:26;;;;;;;1.80;1.70;;;2.30;99.90;;;;;;5035651;28;20402;-64
2022/04/01 00:36:52;;;;;;;1.70;1.60;;;2.30;99.90;;;;;;5035652;28;20164;-63
2022/04/01 00:39:19;;;;;;;1.97;1.87;;;2.30;99.90;;;;;;5035095;28;20183;-63
2022/04/01 00:41:46;;;;;;;2.00;1.90;;;2.30;99.90;;;;;;5035530;28;20457;-67
2022/04/01 00:44:15;;;;;;;2.70;1.90;;;2.30;99.90;;;;;;5035373;28;20413;-66
2022/04/01 00:46:47;;;;;;;2.95;2.20;;;2.30;99.90;;;;;;5035420;28;20399;-67
2022/04/01 00:49:13;;;;;;;2.30;2.20;;;2.20;99.90;;;;;;5034930;28;20595;-67
2022/04/01 00:51:42;;;;;;;1.58;1.48;;;2.30;99.90;;;;;;5035259;28;20461;-66
2022/04/01 00:54:09;;;;;;;2.60;2.40;;;2.30;99.90;;;;;;5035082;28;20183;-63
2022/04/01 00:56:35;;;;;;;2.57;1.50;;;2.30;99.90;;;;;;5035151;28;20406;-63
2022/04/01 00:59:02;;;;;;;2.10;2.00;;;2.30;99.90;;;;;;5033523;28;20418;-63
2022/04/01 01:01:30;;;;;;;3.50;2.10;;;2.30;99.90;;;;;;5035253;28;20423;-66
2022/04/01 01:03:57;;;;;;;3.67;2.05;;;2.30;99.90;;;;;;5035308;28;20450;-67
2022/04/01 01:06:23;;;;;;;1.95;1.85;;;2.30;99.90;;;;;;5034981;28;20236;-66
2022/04/01 01:08:49;;;;;;;1.93;1.83;;;2.30;99.90;;;;;;5033165;28;20274;-63
2022/04/01 01:11:15;;;;;;;2.50;1.67;;;2.30;99.90;;;;;;5035186;28;20540;-63
2022/04/01 01:13:41;;;;;;;2.43;2.33;;;2.30;99.90;;;;;;5035216;28;20413;-63
2022/04/01 01:16:09;;;;;;;2.00;1.90;;;2.20;99.90;;;;;;5035072;28;20172;-66
2022/04/01 01:18:35;;;;;;;1.95;1.85;;;2.20;99.90;;;;;;5034202;28;20237;-66
2022/04/01 01:21:01;;;;;;;1.80;1.70;;;2.20;99.90;;;;;;5034822;28;20255;-67
2022/04/01 01:23:29;;;;;;;1.97;1.87;;;2.20;99.90;;;;;;5034676;28;20540;-64
2022/04/01 01:25:55;;;;;;;1.90;1.80;;;2.20;99.90;;;;;;5034960;28;20192;-63
2022/04/01 01:28:22;;;;;;;4.80;2.37;;;2.30;99.90;;;;;;5033589;28;20496;-66
2022/04/01 01:30:48;;;;;;;4.13;2.13;;;2.20;99.90;;;;;;5034087;28;20167;-64
2022/04/01 01:33:14;;;;;;;2.17;1.97;;;2.20;99.90;;;;;;5034549;28;20206;-66
2022/04/01 01:35:40;;;;;;;3.73;2.00;;;2.20;99.90;;;;;;5034685;28;20213;-66
2022/04/01 01:38:08;;;;;;;2.30;2.10;;;2.20;99.90;;;;;;5034421;28;20411;-64
2022/04/01 01:40:34;;;;;;;2.15;2.05;;;2.20;99.90;;;;;;5033818;28;20493;-64
2022/04/01 01:43:00;;;;;;;5.00;2.13;;;2.20;99.90;;;;;;5034195;28;20642;-67
2022/04/01 01:45:29;;;;;;;2.20;2.00;;;2.20;99.90;;;;;;5034454;28;20460;-63
2022/04/01 01:47:55;;;;;;;2.60;2.40;;;2.20;99.90;;;;;;5034385;28;20167;-64
2022/04/01 01:55:49;;;;;;;2.03;1.93;;;2.20;99.90;;;;;;5034519;28;20478;-67
2022/04/01 01:58:15;;;;;;;5.23;1.87;;;2.20;99.90;;;;;;5034201;28;20847;-63
2022/04/01 02:00:42;;;;;;;1.90;1.80;;;2.20;99.90;;;;;;5033556;28;20180;-64
2022/04/01 02:03:10;;;;;;;1.80;1.70;;;2.20;99.90;;;;;;5033755;28;20249;-66
2022/04/01 02:05:35;;;;;;;3.75;3.17;;;2.20;99.90;;;;;;5033534;28;20171;-67
2022/04/01 02:08:02;;;;;;;3.57;1.97;;;2.20;99.90;;;;;;5034060;28;20175;-63
2022/04/01 02:10:28;;;;;;;1.90;1.80;;;2.30;99.90;;;;;;5033461;28;20171;-63
2022/04/01 02:12:54;;;;;;;4.27;2.40;;;2.20;99.90;;;;;;5033833;28;20764;-68
2022/04/01 02:15:20;;;;;;;3.80;2.37;;;2.30;99.90;;;;;;5033903;28;20179;-66
2022/04/01 02:17:46;;;;;;;2.40;2.20;;;2.30;99.90;;;;;;5033861;28;20159;-63
2022/04/01 02:20:13;;;;;;;2.07;1.87;;;2.30;99.90;;;;;;5033193;28;20254;-64
2022/04/01 02:22:40;;;;;;;2.10;1.90;;;2.20;99.90;;;;;;5033687;28;20799;-63
2022/04/01 02:25:11;;;;;;;1.73;1.63;;;2.20;99.90;;;;;;5033640;28;20692;-66
2022/04/01 02:27:37;;;;;;;1.90;1.80;;;2.20;99.90;;;;;;5033680;28;20395;-67
2022/04/01 02:30:10;;;;;;;5.20;1.60;;;2.20;99.90;;;;;;5033008;28;20603;-66
2022/04/01 02:32:40;;;;;;;1.80;1.70;;;2.30;99.90;;;;;;5033615;28;20788;-63
2022/04/01 02:35:07;;;;;;;1.80;1.70;;;2.30;99.90;;;;;;5033396;28;20410;-64
2022/04/01 02:37:33;;;;;;;1.90;1.80;;;2.30;99.90;;;;;;5033507;28;20406;-67
2022/04/01 02:39:59;;;;;;;2.03;1.93;;;2.30;99.90;;;;;;5031819;28;20418;-63
2022/04/01 02:42:25;;;;;;;1.90;1.80;;;2.30;99.90;;;;;;5033397;28;20454;-66
2022/04/01 02:44:51;;;;;;;2.87;2.10;;;2.30;99.90;;;;;;5033314;28;20624;-63
2022/04/01 02:47:16;;;;;;;1.90;1.80;;;2.30;99.90;;;;;;5033301;28;20506;-67
2022/04/01 02:49:42;;;;;;;1.93;1.80;;;2.30;99.90;;;;;;5032808;28;20414;-63
2022/04/01 02:52:08;;;;;;;2.20;2.07;;;2.30;99.90;;;;;;5033197;28;20245;-66
2022/04/01 02:54:34;;;;;;;1.73;1.60;;;2.30;99.90;;;;;;5033317;28;20421;-67
2022/04/01 02:57:01;;;;;;;2.10;1.97;;;2.30;99.90;;;;;;5033307;28;20175;-66
2022/04/01 02:59:27;;;;;;;2.10;2.00;;;2.40;99.90;;;;;;5031218;28;20414;-64
2022/04/01 03:01:52;;;;;;;2.27;2.07;;;2.30;99.90;;;;;;5033332;28;20479;-61
2022/04/01 03:04:18;;;;;;;2.33;2.23;;;2.30;99.90;;;;;;5033305;28;20274;-67
2022/04/01 03:06:44;;;;;;;1.63;1.53;;;2.30;99.90;;;;;;5033393;28;20195;-63
2022/04/01 03:09:10;;;;;;;2.10;2.00;;;2.30;99.90;;;;;;5031294;28;20172;-66
2022/04/01 03:11:37;;;;;;;2.00;1.90;;;2.30;99.90;;;;;;5033100;28;20321;-64
2022/04/01 03:14:04;;;;;;;1.77;1.67;;;2.30;99.90;;;;;;5033224;28;20407;-63
2022/04/01 03:16:29;;;;;;;4.72;1.80;;;2.30;99.90;;;;;;5034054;28;20748;-66
2022/04/01 03:18:59;;;;;;;1.60;1.50;;;2.30;99.90;;;;;;5036584;28;20172;-63
2022/04/01 03:21:26;;;;;;;2.13;2.00;;;2.30;99.90;;;;;;5036946;28;20190;-66
2022/04/01 03:23:52;;;;;;;1.70;1.60;;;2.20;99.90;;;;;;5036954;28;20468;-67
2022/04/01 03:26:20;;;;;;;1.90;1.80;;;2.30;99.90;;;;;;5037042;28;20195;-66
2022/04/01 03:28:46;;;;;;;2.75;1.85;;;2.20;99.90;;;;;;5036492;28;20160;-67
2022/04/01 03:31:14;;;;;;;3.30;1.90;;;2.20;99.90;;;;;;5036914;28;20164;-66
2022/04/01 03:33:44;;;;;;;2.10;2.00;;;2.20;99.90;;;;;;5036774;28;20191;-66
2022/04/01 03:36:10;;;;;;;2.38;2.17;;;2.30;99.90;;;;;;5036988;28;20167;-64
2022/04/01 03:38:37;;;;;;;2.50;2.10;;;2.20;99.90;;;;;;5036182;28;20648;-67
2022/04/01 03:41:05;;;;;;;2.67;2.10;;;2.20;99.90;;;;;;5036630;28;20394;-67
2022/04/01 03:43:34;;;;;;;8.53;2.20;;;2.30;99.90;;;;;;5036600;28;20960;-66
2022/04/01 03:46:08;;;;;;;3.73;3.53;;;2.30;99.90;;;;;;5036535;28;20398;-63
2022/04/01 03:48:38;;;;;;;3.13;2.07;;;2.20;99.90;;;;;;5036168;28;20406;-67
2022/04/01 03:51:05;;;;;;;2.03;1.93;;;2.20;99.90;;;;;;5036493;28;20767;-66
2022/04/01 03:53:34;;;;;;;2.60;2.40;;;2.20;99.90;;;;;;5036512;28;20460;-67
2022/04/01 03:56:01;;;;;;;4.25;2.00;;;2.20;99.90;;;;;;5036412;28;20410;-66
2022/04/01 03:58:32;;;;;;;1.90;1.80;;;2.20;99.90;;;;;;5036424;28;20192;-67
2022/04/01 04:01:00;;;;;;;1.98;1.83;;;2.20;99.90;;;;;;5036405;28;20182;-63
2022/04/01 04:03:27;;;;;;;2.17;2.00;;;2.20;99.90;;;;;;5034976;28;20668;-67
2022/04/01 04:05:53;;;;;;;2.33;1.98;;;2.20;99.90;;;;;;5036190;28;20552;-69
2022/04/01 04:08:21;;;;;;;2.30;2.20;;;2.20;99.90;;;;;;5036338;28;20645;-67
2022/04/01 04:10:48;;;;;;;4.53;1.90;;;2.20;99.90;;;;;;5035724;28;20401;-66
2022/04/01 04:13:15;;;;;;;3.58;2.17;;;2.20;99.90;;;;;;5036185;28;20418;-66
2022/04/01 04:16:08;;;;;;;2.10;2.00;;;2.20;99.90;;;;;;5036208;28;20659;-64
2022/04/01 04:18:47;;;;;;;2.97;2.70;;;2.20;99.90;;;;;;5035503;28;20167;-67
2022/04/01 04:21:29;;;;;;;2.10;2.00;;;2.10;99.90;;;;;;5036021;28;20176;-64
2022/04/01 04:24:01;;;;;;;2.20;2.00;;;2.10;99.90;;;;;;5035879;28;20446;-64
2022/04/01 04:26:32;;;;;;;1.85;1.75;;;2.20;99.90;;;;;;5035907;28;20398;-66
2022/04/01 04:29:15;;;;;;;2.50;2.40;;;2.20;99.90;;;;;;5034757;28;20529;-64
2022/04/01 04:32:03;;;;;;;9.43;2.50;;;2.20;99.90;;;;;;5035753;28;20187;-64
2022/04/01 04:34:37;;;;;;;2.00;1.90;;;2.20;99.90;;;;;;5035754;28;20406;-66
2022/04/01 04:37:09;;;;;;;1.77;1.67;;;2.20;99.90;;;;;;5035837;28;20178;-67
2022/04/01 04:39:36;;;;;;;2.07;1.90;;;2.20;99.90;;;;;;5034943;28;20906;-67
2022/04/01 04:42:04;;;;;;;2.07;1.97;;;2.20;99.90;;;;;;5035410;28;20454;-64
2022/04/01 04:44:30;;;;;;;2.03;1.92;;;2.20;99.90;;;;;;5035530;28;20403;-64
2022/04/01 04:47:06;;;;;;;1.70;1.60;;;2.20;99.90;;;;;;5035545;28;20171;-64
2022/04/01 04:49:32;;;;;;;2.87;2.10;;;2.20;99.90;;;;;;5034870;28;20398;-63
2022/04/01 04:51:59;;;;;;;2.15;2.05;;;2.20;99.90;;;;;;5035288;28;20445;-64
2022/04/01 04:54:25;;;;;;;2.07;1.97;;;2.10;99.90;;;;;;5034271;28;20168;-63
2022/04/01 04:56:52;;;;;;;3.63;1.80;;;2.20;99.90;;;;;;5035378;28;20403;-63
2022/04/01 04:59:20;;;;;;;2.60;1.73;;;2.20;99.90;;;;;;5034583;28;20402;-63
2022/04/01 05:02:01;;;;;;;2.47;2.38;;;2.10;99.90;;;;;;5035154;28;20437;-64
2022/04/01 05:04:55;;;;;;;2.07;1.97;;;2.10;99.90;;;;;;5035034;28;20179;-64
2022/04/01 05:07:36;;;;;;;2.33;2.17;;;2.20;99.90;;;;;;5036460;28;20430;-63
2022/04/01 05:10:08;;;;;;;1.95;1.85;;;2.20;99.90;;;;;;5034521;28;20179;-63
2022/04/01 05:12:44;;;;;;;2.63;2.10;;;2.20;99.90;;;;;;5034897;28;20549;-64
2022/04/01 05:15:11;;;;;;;4.32;2.17;;;2.20;99.90;;;;;;5034945;28;20405;-63
2022/04/01 05:17:43;;;;;;;2.00;1.90;;;2.10;99.90;;;;;;5034938;28;20172;-66
2022/04/01 05:20:15;;;;;;;1.90;1.80;;;2.20;99.90;;;;;;5034266;28;20930;-63
2022/04/01 05:23:16;;;;;;;1.92;1.83;;;2.20;99.90;;;;;;5034691;28;20199;-66
2022/04/01 05:25:49;;;;;;;2.30;2.20;;;2.20;99.90;;;;;;5034788;28;20171;-63
2022/04/01 05:28:31;;;;;;;1.90;1.80;;;2.10;99.90;;;;;;5033436;28;20418;-64
2022/04/01 05:31:24;;;;;;;2.03;1.93;;;2.20;99.90;;;;;;5034677;28;20180;-63
2022/04/01 05:34:08;;;;;;;2.47;2.20;;;2.20;99.90;;;;;;5033285;28;20407;-63
2022/04/01 05:36:34;;;;;;;2.43;2.23;;;2.30;99.90;;;;;;5034537;28;20398;-66
2022/04/01 05:39:01;;;;;;;1.73;1.63;;;2.20;99.90;;;;;;5033070;28;20741;-68
2022/04/01 05:41:28;;;;;;;3.13;2.17;;;2.30;99.90;;;;;;5034630;28;20473;-65
2022/04/01 05:43:57;;;;;;;3.30;1.13;;;2.30;99.90;;;;;;5033726;28;20466;-64
2022/04/01 05:46:24;;;;;;;2.30;2.10;;;2.40;99.90;;;;;;5034411;28;20722;-67
2022/04/01 05:48:51;;;;;;;3.00;2.70;;;2.40;99.90;;;;;;5033597;28;20918;-66
2022/04/01 05:51:18;;;;;;;2.33;2.13;;;2.40;99.90;;;;;;5034512;28;20174;-66
2022/04/01 05:53:45;;;;;;;2.43;2.23;;;2.40;99.90;;;;;;5034403;28;20493;-67
2022/04/01 05:56:11;;;;;;;2.38;1.88;;;2.40;99.90;;;;;;5034147;28;20477;-66
2022/04/01 05:58:38;;;;;;;2.37;1.97;;;2.50;99.90;;;;;;5033394;28;20222;-66
2022/04/01 06:01:42;;;;;;;2.03;1.93;;;2.50;99.90;;;;;;5033859;28;20398;-66
2022/04/01 06:04:36;;;;;;;3.13;2.77;;;2.50;99.90;;;;;;5034017;28;20457;-67
2022/04/01 06:07:34;;;;;;;2.23;2.13;;;2.50;99.90;;;;;;5033789;28;20461;-64
2022/04/01 06:10:09;;;;;;;2.37;2.27;;;2.50;99.90;;;;;;5031600;28;20422;-66
2022/04/01 06:12:57;;;;;;;2.50;2.30;;;2.50;99.90;;;;;;5033718;28;20541;-64
2022/04/01 06:15:51;;;;;;;3.43;3.13;;;2.50;99.90;;;;;;5033960;28;20413;-66
2022/04/01 06:18:50;;;;;;;2.15;2.00;;;2.60;99.90;;;;;;5033869;28;20879;-66
2022/04/01 06:21:24;;;;;;;3.50;2.00;;;2.60;99.90;;;;;;5033671;28;20210;-63
2022/04/01 06:23:59;;;;;;;7.00;2.33;;;2.70;99.90;;;;;;5033796;28;20430;-66
2022/04/01 06:26:26;;;;;;;3.00;1.73;;;2.70;99.90;;;;;;5033754;28;20171;-66
2022/04/01 06:29:09;;;;;;;2.30;2.20;;;2.70;99.90;;;;;;5033065;28;20880;-64
2022/04/01 06:31:35;;;;;;;2.63;2.43;;;2.80;99.90;;;;;;5033613;28;20433;-67
2022/04/01 06:34:14;;;;;;;2.10;2.00;;;2.90;99.90;;;;;;5033585;28;20492;-66
2022/04/01 06:36:45;;;;;;;1.90;1.80;;;3.00;99.90;;;;;;5033528;28;20225;-66
2022/04/01 06:39:17;;;;;;;3.43;2.60;;;3.00;99.90;;;;;;5032751;28;20398;-64
2022/04/01 06:41:47;;;;;;;2.10;2.00;;;3.10;99.90;;;;;;5033556;28;20445;-64
2022/04/01 06:44:13;;;;;;;5.03;2.10;;;3.10;99.90;;;;;;5033433;28;20454;-63
2022/04/01 06:46:38;;;;;;;2.10;2.00;;;3.10;99.90;;;;;;5033392;28;20405;-66
2022/04/01 06:49:08;;;;;;;2.30;1.77;;;3.10;99.90;;;;;;5032706;28;20410;-64
2022/04/01 06:51:38;;;;;;;1.90;1.80;;;3.10;99.90;;;;;;5033068;28;20553;-67
2022/04/01 06:54:05;;;;;;;2.70;1.70;;;3.10;99.90;;;;;;5033434;28;20407;-66
2022/04/01 06:56:31;;;;;;;2.40;2.20;;;3.10;99.90;;;;;;5033367;28;20418;-67
2022/04/01 06:58:57;;;;;;;2.03;1.93;;;3.10;99.90;;;;;;5032625;28;20425;-64
2022/04/01 07:01:22;;;;;;;3.07;2.10;;;3.20;99.90;;;;;;5033105;28;20226;-64
2022/04/01 07:03:48;;;;;;;2.37;2.27;;;3.20;99.90;;;;;;5033128;28;20954;-63
2022/04/01 07:06:15;;;;;;;2.30;2.20;;;3.30;99.90;;;;;;5033253;28;20183;-67
2022/04/01 07:08:42;;;;;;;2.47;2.37;;;3.30;99.90;;;;;;5032552;28;20159;-64
2022/04/01 07:11:08;;;;;;;8.73;2.60;;;3.30;99.90;;;;;;5033088;28;20481;-67
2022/04/01 07:13:33;;;;;;;2.70;2.40;;;3.30;99.90;;;;;;5033057;28;20494;-64
2022/04/01 07:15:59;;;;;;;1.80;1.70;;;3.40;99.90;;;;;;5033337;28;20175;-63
2022/04/01 07:18:24;;;;;;;3.30;2.00;;;3.40;99.90;;;;;;5033361;28;20517;-64
2022/04/01 07:20:52;;;;;;;2.03;1.93;;;3.40;99.90;;;;;;5031441;28;20230;-66
2022/04/01 07:23:18;;;;;;;2.03;1.93;;;3.50;99.90;;;;;;5033088;28;20201;-64
2022/04/01 07:25:43;;;;;;;2.80;2.17;;;3.60;99.90;;;;;;5031847;28;20771;-64
2022/04/01 07:28:09;;;;;;;2.30;2.20;;;3.60;99.90;;;;;;5033204;28;20273;-66
2022/04/01 07:30:37;;;;;;;2.13;1.93;;;3.70;99.90;;;;;;5032473;28;20192;-67
2022/04/01 07:33:03;;;;;;;3.30;2.07;;;3.80;99.90;;;;;;5033093;28;20874;-63
2022/04/01 07:35:30;;;;;;;2.20;2.10;;;3.90;99.90;;;;;;5032999;28;20497;-67
2022/04/01 07:37:56;;;;;;;2.33;2.23;;;3.90;99.90;;;;;;5032968;28;20956;-63
2022/04/01 07:40:24;;;;;;;3.07;2.83;;;3.70;99.90;;;;;;5032416;28;20410;-63
2022/04/01 07:42:50;;;;;;;2.77;2.00;;;3.80;99.90;;;;;;5032802;28;20454;-64
2022/04/01 07:45:18;;;;;;;2.27;2.17;;;3.90;99.90;;;;;;5032923;28;20536;-67
2022/04/01 07:47:45;;;;;;;6.17;2.37;;;3.90;99.90;;;;;;5032791;28;20402;-64
2022/04/01 07:50:14;;;;;;;2.37;2.17;;;4.00;99.90;;;;;;5032216;28;20413;-67
2022/04/01 07:52:42;;;;;;;2.20;2.10;;;3.90;99.90;;;;;;5032818;28;20418;-66
2022/04/01 07:55:09;;;;;;;2.37;2.17;;;3.80;99.90;;;;;;5032782;28;20402;-64
2022/04/01 07:57:34;;;;;;;8.23;2.80;;;3.80;99.90;;;;;;5032780;28;20497;-66
2022/04/01 08:00:00;;;;;;;2.30;2.10;;;4.00;99.90;;;;;;5030724;28;20850;-64
2022/04/01 08:02:26;;;;;;;2.47;2.10;;;4.20;99.90;;;;;;5033489;28;20206;-63
2022/04/01 08:04:52;;;;;;;2.50;2.40;;;4.40;99.90;;;;;;5036387;28;20423;-67
2022/04/01 08:07:17;;;;;;;3.10;2.87;;;4.60;99.90;;;;;;5036172;28;20245;-63
2022/04/01 08:09:44;;;;;;;2.30;2.20;;;4.60;99.90;;;;;;5035433;28;20282;-66
2022/04/01 08:12:09;;;;;;;2.90;2.20;;;4.50;99.90;;;;;;5035931;28;20198;-67
2022/04/01 08:14:37;;;;;;;6.30;4.20;;;4.30;99.90;;;;;;5036054;28;20394;-63
2022/04/01 08:17:04;;;;;;;2.70;2.50;;;4.20;99.90;;;;;;5036313;28;20174;-63
2022/04/01 08:19:29;;;;;;;2.37;2.13;;;4.30;99.90;;;;;;5035416;28;20795;-67
2022/04/01 08:21:57;;;;;;;2.67;2.47;;;4.30;99.90;;;;;;5035899;28;20450;-64
2022/04/01 08:24:24;;;;;;;5.93;2.13;;;4.20;99.90;;;;;;5035910;28;20854;-67
2022/04/01 08:26:51;;;;;;;2.17;2.03;;;4.40;99.90;;;;;;5036072;28;20391;-63
2022/04/01 08:29:17;;;;;;;2.93;2.73;;;4.40;99.90;;;;;;5035039;28;20473;-67
2022/04/01 08:31:43;;;;;;;5.53;2.70;;;4.40;99.90;;;;;;5035776;28;20418;-66
2022/04/01 08:34:09;;;;;;;2.87;2.60;;;4.50;99.90;;;;;;5035623;28;20398;-67
2022/04/01 08:36:35;;;;;;;2.00;1.90;;;4.50;99.90;;;;;;5035730;28;20407;-63
2022/04/01 08:39:01;;;;;;;2.47;2.27;;;4.40;99.90;;;;;;5033632;28;20426;-64
2022/04/01 08:41:27;;;;;;;2.63;2.40;;;4.60;99.90;;;;;;5034161;28;20195;-67
2022/04/01 08:43:53;;;;;;;1.80;1.70;;;4.70;99.90;;;;;;5035250;28;20499;-66
2022/04/01 08:46:21;;;;;;;2.40;2.30;;;4.80;99.90;;;;;;5035458;28;20231;-67
2022/04/01 08:48:48;;;;;;;2.23;2.03;;;4.90;99.90;;;;;;5035008;28;20434;-67
2022/04/01 08:51:13;;;;;;;2.40;2.30;;;4.90;99.90;;;;;;5035435;28;20399;-63
2022/04/01 08:53:43;;;;;;;2.90;2.13;;;4.80;99.90;;;;;;5035386;28;20395;-69
2022/04/01 08:56:08;;;;;;;2.17;2.07;;;4.90;99.90;;;;;;5035264;28;20168;-66
2022/04/01 08:58:34;;;;;;;2.80;2.40;;;5.10;99.90;;;;;;5034647;28;20807;-67
2022/04/01 09:01:02;;;;;;;2.53;2.33;;;5.20;99.90;;;;;;5035308;28;20532;-64
2022/04/01 09:03:28;;;;;;;2.23;2.13;;;5.30;99.90;;;;;;5035172;28;20458;-67
2022/04/01 09:05:56;;;;;;;2.33;2.23;;;5.40;99.90;;;;;;5035179;28;20419;-67
2022/04/01 09:08:24;;;;;;;5.23;2.60;;;5.40;99.90;;;;;;5034966;28;20398;-68
2022/04/01 09:10:54;;;;;;;3.00;2.53;;;5.10;99.90;;;;;;5034566;28;20426;-67
2022/04/01 09:13:22;;;;;;;2.97;2.73;;;5.10;99.90;;;;;;5035042;28;20792;-64
2022/04/01 09:15:48;;;;;;;3.10;2.43;;;5.20;99.90;;;;;;5035254;28;20451;-63
2022/04/01 09:18:32;;;;;;;4.93;3.20;;;5.50;99.90;;;;;;5034923;28;20412;-67
2022/04/01 09:20:58;;;;;;;2.53;2.37;;;5.50;99.90;;;;;;5034902;28;20207;-67
2022/04/01 09:23:24;;;;;;;2.40;2.30;;;5.60;99.90;;;;;;5034732;28;20455;-67
2022/04/01 09:25:52;;;;;;;2.33;2.23;;;5.50;99.90;;;;;;5035004;28;20618;-63
2022/04/01 09:28:44;;;;;;;2.17;2.07;;;5.40;99.90;;;;;;5034785;28;20404;-68
2022/04/01 09:31:13;;;;;;;2.80;2.60;;;5.50;99.90;;;;;;5035090;28;20425;-64
2022/04/01 09:33:47;;;;;;;2.50;2.20;;;5.70;99.90;;;;;;5034826;28;20391;-67
2022/04/01 09:36:18;;;;;;;2.83;1.97;;;5.60;99.90;;;;;;5034691;28;20390;-64
2022/04/01 09:38:59;;;;;;;2.30;2.17;;;5.40;99.90;;;;;;5032674;28;20418;-64
2022/04/01 09:41:49;;;;;;;2.20;2.00;;;5.40;99.90;;;;;;5034473;28;20418;-66
2022/04/01 09:44:21;;;;;;;2.07;1.97;;;5.40;99.90;;;;;;5034438;28;20450;-67
2022/04/01 09:46:52;;;;;;;2.10;2.00;;;5.40;99.90;;;;;;5034438;28;20485;-64
2022/04/01 09:49:42;;;;;;;2.40;2.20;;;5.60;99.90;;;;;;5033856;28;20399;-67
2022/04/01 09:52:13;;;;;;;2.70;2.50;;;5.50;99.90;;;;;;5034298;28;20417;-64
2022/04/01 09:54:48;;;;;;;6.00;2.47;;;5.70;99.90;;;;;;5034205;28;20394;-64
2022/04/01 09:57:19;;;;;;;1.87;1.77;;;5.50;99.90;;;;;;5034247;28;20487;-67
2022/04/01 09:59:47;;;;;;;2.67;2.47;;;5.60;99.90;;;;;;5033622;28;20418;-63
2022/04/01 10:02:13;;;;;;;2.47;2.23;;;5.50;99.90;;;;;;5033986;28;20430;-68
2022/04/01 10:04:40;;;;;;;2.73;2.10;;;5.50;99.90;;;;;;5033938;28;20432;-64
2022/04/01 10:07:05;;;;;;;2.63;2.43;;;5.70;99.90;;;;;;5033877;28;20765;-67
2022/04/01 10:09:32;;;;;;;3.43;2.20;;;5.90;99.90;;;;;;5033593;28;20406;-63
2022/04/01 10:12:08;;;;;;;3.10;2.80;;;6.00;99.90;;;;;;5032846;28;20192;-67
2022/04/01 10:14:38;;;;;;;2.73;2.37;;;5.80;99.90;;;;;;5033912;28;20457;-64
2022/04/01 10:17:05;;;;;;;2.20;2.00;;;5.50;99.90;;;;;;5033732;28;20410;-67
2022/04/01 10:19:36;;;;;;;2.33;2.23;;;5.30;99.90;;;;;;5033303;28;20399;-64
2022/04/01 10:22:02;;;;;;;3.00;2.70;;;5.30;99.90;;;;;;5033781;28;20507;-70
2022/04/01 10:24:47;;;;;;;10.07;2.42;;;5.40;99.90;;;;;;5032421;28;20508;-61
2022/04/01 10:27:57;;;;;;;2.63;2.33;;;5.60;99.90;;;;;;5033553;28;20171;-61
2022/04/01 10:30:25;;;;;;;6.03;2.30;;;5.60;99.90;;;;;;5050941;28;20409;-64
2022/04/01 10:32:50;;;;;;;2.50;2.30;;;5.60;99.90;;;;;;5051452;28;20434;-61
2022/04/01 10:35:29;;;;;;;2.83;2.23;;;5.80;99.90;;;;;;5043035;28;20414;-61
2022/04/01 10:38:06;;;;;;;2.50;2.40;;;5.90;99.90;;;;;;5033581;28;20414;-65
2022/04/01 10:40:39;;;;;;;2.10;2.00;;;6.00;99.90;;;;;;5032924;28;20400;-64
2022/04/01 10:43:20;;;;;;;2.80;2.30;;;5.80;99.90;;;;;;5033310;28;20452;-66
2022/04/01 10:46:05;;;;;;;4.13;2.60;;;6.00;99.90;;;;;;5033558;28;20412;-61
2022/04/01 10:51:39;;;;;;;3.30;2.93;;;6.20;99.90;;;;;;5033494;28;20439;-64
2022/04/01 10:54:12;;;;;;;2.07;1.90;;;5.80;99.90;;;;;;5033479;28;20435;-62
2022/04/01 10:57:00;;;;;;;9.10;1.90;;;5.70;99.90;;;;;;5033277;28;20464;-64
2022/04/01 10:59:27;;;;;;;2.67;2.47;;;6.00;99.90;;;;;;5032565;28;20409;-62
2022/04/01 11:01:53;;;;;;;2.10;1.93;;;6.40;99.90;;;;;;5033360;28;20509;-65
2022/04/01 11:04:18;;;;;;;2.50;2.30;;;6.60;99.90;;;;;;5033230;28;20540;-64
2022/04/01 11:07:27;;;;;;;2.40;2.30;;;6.50;99.90;;;;;;5033207;28;20179;-61
2022/04/01 11:09:58;;;;;;;2.70;2.50;;;6.10;99.90;;;;;;5036082;28;20261;-64
2022/04/01 11:12:32;;;;;;;2.27;2.17;;;5.90;99.50;;;;;;5033100;28;20425;-64
2022/04/01 11:17:35;;;;;;;3.03;2.73;;;6.20;99.90;;;;;;5033069;28;20386;-61
2022/04/01 11:20:09;;;;;;;2.93;2.73;;;6.40;99.90;;;;;;5032581;28;20426;-65
2022/04/01 11:22:46;;;;;;;2.20;2.10;;;6.30;99.90;;;;;;5033125;28;20953;-61
2022/04/01 11:25:33;;;;;;;2.23;2.13;;;6.90;99.90;;;;;;5031945;28;20406;-66
2022/04/01 11:28:01;;;;;;;2.33;2.23;;;7.20;99.90;;;;;;5033212;28;20414;-62
2022/04/01 11:30:40;;;;;;;3.00;2.00;;;6.60;98.80;;;;;;5032492;28;20401;-61
2022/04/01 11:33:13;;;;;;;2.80;2.10;;;6.40;98.90;;;;;;5033066;28;20559;-65
2022/04/01 11:35:48;;;;;;;3.73;2.30;;;6.50;99.40;;;;;;5033042;28;20921;-61
2022/04/01 11:38:18;;;;;;;2.80;2.60;;;6.50;97.80;;;;;;5033707;28;20409;-65
2022/04/01 11:40:45;;;;;;;2.00;1.80;;;6.20;95.80;;;;;;5036199;28;20892;-65
2022/04/01 11:43:16;;;;;;;2.00;1.90;;;5.90;95.20;;;;;;5036657;28;20447;-65
2022/04/01 11:46:02;;;;;;;3.17;2.87;;;5.40;92.90;;;;;;5036607;28;20398;-61
2022/04/01 11:48:34;;;;;;;2.10;2.00;;;5.40;96.50;;;;;;5036382;28;20432;-70
2022/04/01 11:51:04;;;;;;;2.70;2.37;;;5.60;97.50;;;;;;5036623;28;20406;-63
2022/04/01 11:53:35;;;;;;;2.57;2.17;;;5.80;98.20;;;;;;5036537;28;20408;-62
2022/04/01 11:56:03;;;;;;;5.60;3.33;;;5.80;98.60;;;;;;5036464;28;20401;-64
2022/04/01 11:58:46;;;;;;;3.00;2.80;;;6.00;97.90;;;;;;5035974;28;20402;-69
2022/04/01 12:01:12;;;;;;;2.40;2.20;;;6.00;97.60;;;;;;5036310;28;20468;-61
2022/04/01 12:03:37;;;;;;;2.60;2.50;;;5.90;95.40;;;;;;5036189;28;20864;-64
2022/04/01 12:08:48;;;;;;;3.00;2.50;;;5.70;95.80;;;;;;5035712;28;20943;-61
2022/04/01 12:11:13;;;;;;;2.60;2.40;;;5.70;96.20;;;;;;5036197;28;20835;-61
2022/04/01 12:13:49;;;;;;;5.10;2.63;;;5.80;97.10;;;;;;5036035;28;20483;-66
2022/04/01 12:16:16;;;;;;;3.00;2.63;;;5.90;98.50;;;;;;5036277;28;20167;-61
2022/04/01 12:18:47;;;;;;;3.60;2.40;;;6.00;95.90;;;;;;5035559;28;20405;-65
2022/04/01 12:21:31;;;;;;;2.43;2.30;;;5.70;94.70;;;;;;5035988;28;20457;-65
2022/04/01 12:23:57;;;;;;;3.33;2.77;;;5.30;94.40;;;;;;5035723;28;20506;-62
2022/04/01 12:26:26;;;;;;;2.43;2.33;;;5.00;94.30;;;;;;5036354;28;20398;-61
2022/04/01 12:28:52;;;;;;;3.10;2.90;;;4.80;94.70;;;;;;5035378;28;20160;-65
2022/04/01 12:31:26;;;;;;;2.87;2.73;;;4.60;95.40;;;;;;5035830;28;20394;-65
2022/04/01 12:33:54;;;;;;;3.30;3.00;;;4.50;96.50;;;;;;5035928;28;20214;-65
2022/04/01 12:36:35;;;;;;;2.87;2.47;;;4.50;96.90;;;;;;5035821;28;20803;-64
2022/04/01 12:39:11;;;;;;;2.63;2.50;;;4.50;98.20;;;;;;5035175;28;20398;-65
2022/04/01 12:41:49;;;;;;;2.40;2.20;;;4.70;99.70;;;;;;5035816;28;20422;-62
2022/04/01 12:44:15;;;;;;;2.30;2.20;;;4.70;99.50;;;;;;5035586;28;20954;-61
2022/04/01 12:46:48;;;;;;;6.90;2.73;;;4.60;99.60;;;;;;5035665;28;20399;-65
2022/04/01 12:49:19;;;;;;;3.30;3.10;;;4.50;99.90;;;;;;5034561;28;20167;-61
2022/04/01 12:52:16;;;;;;;2.83;2.63;;;4.60;99.80;;;;;;5035464;28;20451;-61
2022/04/01 12:54:47;;;;;;;2.70;2.50;;;4.50;98.60;;;;;;5035406;28;20464;-61
2022/04/01 12:57:16;;;;;;;2.50;2.30;;;4.40;98.20;;;;;;5035334;28;20402;-67
2022/04/01 12:59:45;;;;;;;2.80;2.60;;;4.50;97.90;;;;;;5034650;28;20401;-64
2022/04/01 13:02:22;;;;;;;3.60;2.30;;;4.60;98.30;;;;;;5033929;28;20426;-65
2022/04/01 13:04:52;;;;;;;2.80;2.60;;;4.70;98.60;;;;;;5035361;28;20410;-61
2022/04/01 13:07:34;;;;;;;2.80;2.60;;;4.90;99.90;;;;;;5035264;28;20439;-61
2022/04/01 13:10:11;;;;;;;2.60;2.40;;;4.90;98.60;;;;;;5034512;28;20413;-61
2022/04/01 13:12:40;;;;;;;2.27;2.17;;;4.70;97.70;;;;;;5035018;28;20434;-63
2022/04/01 13:15:13;;;;;;;5.03;2.37;;;4.60;97.30;;;;;;5035152;28;20425;-63
2022/04/01 13:17:53;;;;;;;3.53;2.90;;;4.60;97.90;;;;;;5034965;28;20895;-65
2022/04/01 13:20:29;;;;;;;2.17;2.07;;;4.80;98.10;;;;;;5034184;28;20434;-61
2022/04/01 13:22:55;;;;;;;3.40;3.10;;;4.90;99.00;;;;;;5034773;28;20492;-65
2022/04/01 13:25:23;;;;;;;3.03;2.83;;;5.10;99.90;;;;;;5034821;28;20439;-65
2022/04/01 13:27:49;;;;;;;2.50;2.40;;;5.20;98.90;;;;;;5034804;28;20282;-61
2022/04/01 13:30:16;;;;;;;2.33;2.23;;;5.10;97.90;;;;;;5034240;28;20408;-65